METAR Data
IDs: Format: Raw Decoded Include TAF

Data at: 1329 UTC 24 May 2019

FNLU 241300Z 27007KT 9999 BKN022 28/23 Q1010

TAF FNLU 241100Z 2412/2512 24011KT 9999 FEW020 BKN025
  TEMPO 2415/2419 9000 FEW015 SCT020
  TEMPO 2422/2502 18005KT 7000
  TEMPO 2504/2508 VRB03KT BKN020


FNCA 241300Z 20009KT 9999 FEW016 BKN080 29/24 Q1011

TAF FNCA 241100Z 2412/2424 18009KT 9999 FEW015 BKN030
  PROB30
  TEMPO 2413/2417 8000 DZ SCT010 BKN025
  BECMG 2421/2423 BKN020


FNBG 240800Z 00000KT CAVOK 24/20 Q1014

TAF FNBG 241100Z 2412/2424 27008KT CAVOK
  TEMPO 2420/2424 VRB02KT


FNHU 241100Z 09004KT 9999 SCT022 25/13 Q1023

TAF FNHU 241101Z 2412/2424 08007KT 9999 FEW015 SCT020
  TEMPO 2420/2424 12005KT 8000 BKN018


FNUE 241300Z 11009KT CAVOK 28/15 Q1020

TAF FNUE 241100Z 2412/2424 11009KT CAVOK

FNGI 241300Z 04012KT 9999 FEW020 30/10 Q1019

TAF FNGI 241100Z 2412/2424 06012KT CAVOK
  TEMPO 2415/2419 9000 FEW020 SCT025
  TEMPO 2420/2424 11005KT 8000 FEW018


FNUB 241200Z 05008KT 9999 FEW030 27/02 Q1025

TAF FNUB 241100Z 2412/2424 05005KT CAVOK
  TEMPO 2415/2419 17009KT 9000 SCT025


FNMO 241100Z 26010KT 9999 FEW007 22/17 Q1013

TAF FNMO 241100Z 2412/2424 24010KT CAVOK
  TEMPO 2420/2424 18007KT


FNUG 241300Z 36008KT 9999 FEW025 BKN090 30/22 Q1012
No TAF found for FNUG


TAF FNMA 241100Z 2412/2424 10007KT 9999 FEW015 BKN020
  TEMPO 2415/2419 VRB02KT 9000
  TEMPO 2422/2424 7000 SCT010 BKN015


FNSA 241300Z 15007KT 9999 SCT030 33/16 Q1017

TAF FNSA 241100Z 2412/2424 10009KT CAVOK
  TEMPO 2415/2419 FEW020
  TEMPO 2420/2424 7000 SCT015


FNSO 241300Z 25013KT 7000 FEW012 BKN060 ///// Q////

TAF FNSO 241100Z 2412/2424 18010KT 9999 FEW010 BKN025
  PROB30
  TEMPO 2413/2417 8000 -DZ SCT012 BKN020
  BECMG 2422/2424 BKN018


No TAF found for FNBC
FNSU 241300Z 22010KT 9999 FEW015 27/// Q1013
No TAF found for FNSU


TAF FNDU 241100Z 2412/2424 09006KT CAVOK
  TEMPO 2415/2419 VRB03KT 9000 FEW020
  BECMG 2421/2423 8000 FEW015 SCT022



TAF FNME 241100Z 2412/2424 10007KT CAVOK

FNCT 241300Z 27008KT 9999 FEW010 26/22 Q1011

TAF FNCT 241100Z 2412/2424 29009KT CAVOK
  TEMPO 2420/2424 VRB03KT


FNKU 241300Z 15010KT CAVOK 25/20 Q1020

TAF FNKU 241100Z 2412/2424 09009KT CAVOK